DAL45P PANC-CYVR
Flight info
| Callsign | DAL45P |
|---|---|
| Flight time | 2h 31m |
| Altitude | 41000 |
| Route | TED J804R NOWEL J889R LAIRE DCT BKA DCT ANN DCT POWOL WHSLR8 |
| Aircraft | A359/H-SDE2E3GHIJ3J4J5LM1ORWXY/LB1D1 |
Departure
| Time | 2026-05-07 21:32 |
|---|---|
| Airport | Ted Stevens Anchorage International Airport (PANC) |
Arrival
| Time | 2026-05-08 00:03 |
|---|---|
| Airport | Vancouver International Airport (CYVR) |
| Time | Latitude | Longitude | Altitude | Speed | Heading |
|---|---|---|---|---|---|
| 2026-05-07 21:29 | 61.17130 | -149.97013 | 127 ft | 17 kts | 88° |
| 2026-05-07 21:29 | 61.17130 | -149.96788 | 126 ft | 16 kts | 90° |
| 2026-05-07 21:30 | 61.17130 | -149.96565 | 126 ft | 13 kts | 90° |
| 2026-05-07 21:30 | 61.17129 | -149.96375 | 126 ft | 14 kts | 91° |
| 2026-05-07 21:30 | 61.17127 | -149.96151 | 124 ft | 15 kts | 90° |
| 2026-05-07 21:30 | 61.17118 | -149.95963 | 121 ft | 10 kts | 124° |
| 2026-05-07 21:31 | 61.17081 | -149.95920 | 124 ft | 0 kts | 163° |
| 2026-05-07 21:31 | 61.17068 | -149.95915 | 123 ft | 9 kts | 171° |
| 2026-05-07 21:31 | 61.16992 | -149.95962 | 120 ft | 12 kts | 233° |
| 2026-05-07 21:32 | 61.16982 | -149.96152 | 123 ft | 15 kts | 270° |
| 2026-05-07 21:32 | 61.16981 | -149.96922 | 125 ft | 104 kts | 269° |
| 2026-05-07 21:32 | 61.16980 | -149.99101 | 213 ft | 190 kts | 266° |
| 2026-05-07 21:32 | 61.16974 | -150.02163 | 783 ft | 234 kts | 265° |
| 2026-05-07 21:33 | 61.16916 | -150.05811 | 1486 ft | 267 kts | 265° |
| 2026-05-07 21:33 | 61.16512 | -150.09516 | 2478 ft | 260 kts | 239° |
| 2026-05-07 21:33 | 61.15292 | -150.12020 | 3311 ft | 244 kts | 204° |
| 2026-05-07 21:33 | 61.13657 | -150.12461 | 4094 ft | 241 kts | 168° |
| 2026-05-07 21:34 | 61.12226 | -150.10721 | 4895 ft | 246 kts | 133° |
| 2026-05-07 21:34 | 61.11568 | -150.07476 | 5672 ft | 257 kts | 98° |
| 2026-05-07 21:34 | 61.11957 | -150.03831 | 6489 ft | 269 kts | 63° |
| 2026-05-07 21:34 | 61.13318 | -150.01144 | 7259 ft | 278 kts | 28° |
| 2026-05-07 21:35 | 61.15215 | -150.00298 | 8047 ft | 284 kts | 1° |
| 2026-05-07 21:35 | 61.17162 | -149.99554 | 8846 ft | 287 kts | 26° |
| 2026-05-07 21:35 | 61.18953 | -149.97675 | 9680 ft | 290 kts | 34° |
| 2026-05-07 21:35 | 61.20438 | -149.94890 | 10466 ft | 289 kts | 57° |
| 2026-05-07 21:36 | 61.21167 | -149.91082 | 11220 ft | 285 kts | 87° |
| 2026-05-07 21:36 | 61.20870 | -149.87087 | 12020 ft | 282 kts | 118° |
| 2026-05-07 21:36 | 61.19820 | -149.83629 | 12792 ft | 289 kts | 132° |
| 2026-05-07 21:36 | 61.18426 | -149.80505 | 13373 ft | 303 kts | 140° |
| 2026-05-07 21:37 | 61.16822 | -149.77507 | 13929 ft | 318 kts | 143° |
| 2026-05-07 21:37 | 61.15102 | -149.74465 | 14442 ft | 333 kts | 143° |
| 2026-05-07 21:37 | 61.13310 | -149.71263 | 14953 ft | 348 kts | 142° |
| 2026-05-07 21:37 | 61.11463 | -149.67859 | 15470 ft | 363 kts | 142° |
| 2026-05-07 21:38 | 61.09567 | -149.64260 | 16001 ft | 377 kts | 141° |
| 2026-05-07 21:38 | 61.07616 | -149.60483 | 16540 ft | 390 kts | 141° |
| 2026-05-07 21:38 | 61.05628 | -149.56594 | 17056 ft | 397 kts | 141° |
| 2026-05-07 21:38 | 61.03641 | -149.52694 | 17605 ft | 402 kts | 141° |
| 2026-05-07 21:39 | 61.01602 | -149.48691 | 18145 ft | 407 kts | 141° |
| 2026-05-07 21:39 | 60.99538 | -149.44652 | 18677 ft | 411 kts | 141° |
| 2026-05-07 21:39 | 60.97451 | -149.40578 | 19162 ft | 415 kts | 141° |
| 2026-05-07 21:39 | 60.95345 | -149.36491 | 19680 ft | 418 kts | 141° |
| 2026-05-07 21:40 | 60.93218 | -149.32380 | 20180 ft | 421 kts | 142° |
| 2026-05-07 21:40 | 60.91067 | -149.28232 | 20690 ft | 425 kts | 142° |
| 2026-05-07 21:40 | 60.88906 | -149.24069 | 21214 ft | 428 kts | 142° |
| 2026-05-07 21:40 | 60.86724 | -149.19874 | 21760 ft | 431 kts | 142° |
| 2026-05-07 21:41 | 60.84519 | -149.15644 | 22303 ft | 435 kts | 142° |
| 2026-05-07 21:41 | 60.82294 | -149.11386 | 22858 ft | 439 kts | 142° |
| 2026-05-07 21:41 | 60.80054 | -149.07107 | 23374 ft | 443 kts | 142° |
| 2026-05-07 21:41 | 60.77783 | -149.02781 | 23904 ft | 447 kts | 142° |
| 2026-05-07 21:42 | 60.75522 | -148.98481 | 24388 ft | 451 kts | 142° |
| 2026-05-07 21:42 | 60.73186 | -148.94040 | 24866 ft | 454 kts | 142° |
| 2026-05-07 21:42 | 60.70898 | -148.89698 | 25352 ft | 456 kts | 142° |
| 2026-05-07 21:42 | 60.68567 | -148.85283 | 25843 ft | 458 kts | 142° |
| 2026-05-07 21:43 | 60.66217 | -148.80844 | 26374 ft | 461 kts | 143° |
| 2026-05-07 21:43 | 60.63855 | -148.76396 | 26895 ft | 464 kts | 143° |
| 2026-05-07 21:43 | 60.61471 | -148.71915 | 27427 ft | 467 kts | 143° |
| 2026-05-07 21:43 | 60.59075 | -148.67422 | 27967 ft | 471 kts | 143° |
| 2026-05-07 21:44 | 60.56654 | -148.62892 | 28489 ft | 474 kts | 143° |
| 2026-05-07 21:44 | 60.54211 | -148.58331 | 29046 ft | 478 kts | 143° |
| 2026-05-07 21:44 | 60.51763 | -148.53734 | 29615 ft | 481 kts | 142° |
| 2026-05-07 21:44 | 60.49527 | -148.48700 | 30188 ft | 490 kts | 134° |
| 2026-05-07 21:45 | 60.47641 | -148.42876 | 30685 ft | 499 kts | 124° |
| 2026-05-07 21:45 | 60.46089 | -148.36552 | 31192 ft | 503 kts | 120° |
| 2026-05-07 21:45 | 60.44718 | -148.30018 | 31673 ft | 505 kts | 117° |
| 2026-05-07 21:45 | 60.43435 | -148.23395 | 32203 ft | 505 kts | 116° |
| 2026-05-07 21:46 | 60.42178 | -148.16754 | 32715 ft | 505 kts | 116° |
| 2026-05-07 21:46 | 60.40915 | -148.10127 | 33208 ft | 503 kts | 116° |
| 2026-05-07 21:46 | 60.39637 | -148.03540 | 33756 ft | 502 kts | 117° |
| 2026-05-07 21:46 | 60.38345 | -147.96999 | 34278 ft | 500 kts | 117° |
| 2026-05-07 21:47 | 60.37041 | -147.90489 | 34733 ft | 498 kts | 117° |
| 2026-05-07 21:47 | 60.35731 | -147.84018 | 35191 ft | 496 kts | 117° |
| 2026-05-07 21:47 | 60.34442 | -147.77685 | 35679 ft | 493 kts | 117° |
| 2026-05-07 21:47 | 60.33137 | -147.71303 | 36144 ft | 490 kts | 117° |
| 2026-05-07 21:48 | 60.31838 | -147.64963 | 36629 ft | 487 kts | 117° |
| 2026-05-07 21:48 | 60.30546 | -147.58674 | 37136 ft | 483 kts | 116° |
| 2026-05-07 21:48 | 60.29264 | -147.52454 | 37645 ft | 478 kts | 116° |
| 2026-05-07 21:48 | 60.27991 | -147.46297 | 38154 ft | 474 kts | 116° |
| 2026-05-07 21:49 | 60.26729 | -147.40207 | 38673 ft | 468 kts | 116° |
| 2026-05-07 21:49 | 60.25478 | -147.34190 | 39140 ft | 462 kts | 116° |
| 2026-05-07 21:49 | 60.24244 | -147.28268 | 39579 ft | 455 kts | 116° |
| 2026-05-07 21:49 | 60.23023 | -147.22424 | 40027 ft | 448 kts | 116° |
| 2026-05-07 21:50 | 60.21826 | -147.16715 | 40479 ft | 439 kts | 116° |
| 2026-05-07 21:50 | 60.20646 | -147.11101 | 40913 ft | 432 kts | 116° |
| 2026-05-07 21:50 | 60.19477 | -147.05562 | 41138 ft | 430 kts | 116° |
| 2026-05-07 21:50 | 60.18318 | -147.00091 | 41177 ft | 432 kts | 116° |
| 2026-05-07 21:51 | 60.15934 | -146.88893 | 41161 ft | 439 kts | 116° |
| 2026-05-07 21:51 | 60.13506 | -146.77525 | 41178 ft | 447 kts | 116° |
| 2026-05-07 21:52 | 60.11027 | -146.65970 | 41177 ft | 455 kts | 116° |
| 2026-05-07 21:52 | 60.08497 | -146.54239 | 41177 ft | 463 kts | 116° |
| 2026-05-07 21:53 | 60.05906 | -146.42290 | 41184 ft | 472 kts | 116° |
| 2026-05-07 21:53 | 60.03271 | -146.30212 | 41184 ft | 480 kts | 116° |
| 2026-05-07 21:54 | 60.00562 | -146.17868 | 41184 ft | 489 kts | 117° |
| 2026-05-07 21:54 | 59.97881 | -146.05214 | 41184 ft | 498 kts | 114° |
| 2026-05-07 21:55 | 59.95355 | -145.92318 | 41183 ft | 499 kts | 114° |
| 2026-05-07 21:55 | 59.93253 | -145.81599 | 41183 ft | 499 kts | 114° |
| 2026-05-07 21:56 | 59.90682 | -145.68748 | 41163 ft | 499 kts | 115° |
| 2026-05-07 21:56 | 59.88080 | -145.55938 | 41187 ft | 499 kts | 115° |
| 2026-05-07 21:57 | 59.85458 | -145.43137 | 41190 ft | 499 kts | 115° |
| 2026-05-07 21:57 | 59.82827 | -145.30365 | 41192 ft | 499 kts | 115° |
| 2026-05-07 21:58 | 59.80187 | -145.17620 | 41190 ft | 499 kts | 115° |
| 2026-05-07 21:58 | 59.77549 | -145.04967 | 41177 ft | 499 kts | 115° |
| 2026-05-07 21:59 | 59.74884 | -144.92261 | 41191 ft | 499 kts | 116° |
| 2026-05-07 21:59 | 59.72202 | -144.79555 | 41190 ft | 499 kts | 116° |
| 2026-05-07 22:00 | 59.69511 | -144.66882 | 41206 ft | 499 kts | 116° |
| 2026-05-07 22:00 | 59.66808 | -144.54230 | 41203 ft | 499 kts | 116° |
| 2026-05-07 22:01 | 59.64093 | -144.41602 | 41200 ft | 499 kts | 116° |
| 2026-05-07 22:01 | 59.61366 | -144.28994 | 41209 ft | 499 kts | 116° |
| 2026-05-07 22:02 | 59.58641 | -144.16471 | 41199 ft | 499 kts | 116° |
| 2026-05-07 22:02 | 59.55892 | -144.03910 | 41195 ft | 499 kts | 116° |
| 2026-05-07 22:03 | 59.53203 | -143.91308 | 41196 ft | 499 kts | 114° |
| 2026-05-07 22:03 | 59.50703 | -143.78533 | 41205 ft | 500 kts | 114° |
| 2026-05-07 22:04 | 59.48208 | -143.65759 | 41204 ft | 500 kts | 114° |
| 2026-05-07 22:04 | 59.45664 | -143.53011 | 41206 ft | 500 kts | 115° |
| 2026-05-07 22:05 | 59.43097 | -143.40326 | 41215 ft | 500 kts | 115° |
| 2026-05-07 22:05 | 59.40511 | -143.27649 | 41187 ft | 499 kts | 115° |
| 2026-05-07 22:06 | 59.37915 | -143.14997 | 41207 ft | 500 kts | 115° |
| 2026-05-07 22:06 | 59.35308 | -143.02365 | 41206 ft | 500 kts | 115° |
| 2026-05-07 22:07 | 59.32686 | -142.89737 | 41209 ft | 500 kts | 115° |
| 2026-05-07 22:07 | 59.30067 | -142.77200 | 41208 ft | 501 kts | 115° |
| 2026-05-07 22:08 | 59.27419 | -142.64604 | 41200 ft | 501 kts | 116° |
| 2026-05-07 22:08 | 59.24751 | -142.51988 | 41214 ft | 501 kts | 116° |
| 2026-05-07 22:09 | 59.22072 | -142.39399 | 41220 ft | 501 kts | 116° |
| 2026-05-07 22:09 | 59.19404 | -142.26937 | 41214 ft | 501 kts | 116° |
| 2026-05-07 22:10 | 59.16706 | -142.14414 | 41219 ft | 501 kts | 116° |
| 2026-05-07 22:10 | 59.13996 | -142.01906 | 41213 ft | 501 kts | 116° |
| 2026-05-07 22:11 | 59.11265 | -141.89381 | 41223 ft | 502 kts | 116° |
| 2026-05-07 22:11 | 59.08523 | -141.76880 | 41217 ft | 502 kts | 117° |
| 2026-05-07 22:12 | 59.05771 | -141.64406 | 41212 ft | 502 kts | 117° |
| 2026-05-07 22:12 | 59.03009 | -141.51962 | 41185 ft | 502 kts | 117° |
| 2026-05-07 22:13 | 59.00249 | -141.39600 | 41222 ft | 503 kts | 117° |
| 2026-05-07 22:13 | 58.97455 | -141.27159 | 41225 ft | 503 kts | 117° |
| 2026-05-07 22:14 | 58.94651 | -141.14746 | 41227 ft | 503 kts | 117° |
| 2026-05-07 22:14 | 58.91834 | -141.02350 | 41227 ft | 503 kts | 117° |
| 2026-05-07 22:15 | 58.89003 | -140.89961 | 41221 ft | 503 kts | 118° |
| 2026-05-07 22:15 | 58.86159 | -140.77594 | 41227 ft | 503 kts | 118° |
| 2026-05-07 22:16 | 58.83302 | -140.65236 | 41227 ft | 504 kts | 118° |
| 2026-05-07 22:16 | 58.80307 | -140.53045 | 41232 ft | 500 kts | 125° |
| 2026-05-07 22:17 | 58.76573 | -140.41801 | 41228 ft | 497 kts | 128° |
| 2026-05-07 22:17 | 58.72682 | -140.30795 | 41229 ft | 497 kts | 129° |
| 2026-05-07 22:18 | 58.66821 | -140.14442 | 41233 ft | 497 kts | 129° |
| 2026-05-07 22:19 | 58.62897 | -140.03499 | 41233 ft | 497 kts | 129° |
| 2026-05-07 22:19 | 58.58972 | -139.92580 | 41233 ft | 497 kts | 129° |
| 2026-05-07 22:20 | 58.55029 | -139.81661 | 41236 ft | 498 kts | 129° |
| 2026-05-07 22:20 | 58.51077 | -139.70768 | 41232 ft | 498 kts | 129° |
| 2026-05-07 22:21 | 58.47104 | -139.59871 | 41231 ft | 499 kts | 129° |
| 2026-05-07 22:21 | 58.43132 | -139.49021 | 41229 ft | 498 kts | 130° |
| 2026-05-07 22:22 | 58.39156 | -139.38212 | 41226 ft | 498 kts | 130° |
| 2026-05-07 22:22 | 58.35160 | -139.27400 | 41235 ft | 499 kts | 130° |
| 2026-05-07 22:23 | 58.31180 | -139.16678 | 41229 ft | 499 kts | 130° |
| 2026-05-07 22:23 | 58.27160 | -139.05899 | 41234 ft | 499 kts | 130° |
| 2026-05-07 22:24 | 58.23135 | -138.95151 | 41232 ft | 499 kts | 130° |
| 2026-05-07 22:24 | 58.19098 | -138.84424 | 41235 ft | 499 kts | 130° |
| 2026-05-07 22:25 | 58.15058 | -138.73735 | 41233 ft | 499 kts | 130° |
| 2026-05-07 22:25 | 58.11035 | -138.63139 | 41240 ft | 499 kts | 130° |
| 2026-05-07 22:26 | 58.06978 | -138.52500 | 41238 ft | 499 kts | 130° |
| 2026-05-07 22:26 | 58.02910 | -138.41879 | 41234 ft | 499 kts | 131° |
| 2026-05-07 22:27 | 57.98828 | -138.31272 | 41234 ft | 499 kts | 131° |
| 2026-05-07 22:27 | 57.94739 | -138.20692 | 41238 ft | 499 kts | 131° |
| 2026-05-07 22:28 | 57.90641 | -138.10135 | 41249 ft | 499 kts | 131° |
| 2026-05-07 22:28 | 57.86534 | -137.99602 | 41222 ft | 499 kts | 131° |
| 2026-05-07 22:29 | 57.82440 | -137.89147 | 41238 ft | 499 kts | 131° |
| 2026-05-07 22:29 | 57.78312 | -137.78651 | 41243 ft | 499 kts | 131° |
| 2026-05-07 22:30 | 57.74178 | -137.68189 | 41237 ft | 499 kts | 132° |
| 2026-05-07 22:30 | 57.70042 | -137.57763 | 41239 ft | 499 kts | 132° |
| 2026-05-07 22:31 | 57.65910 | -137.47391 | 41238 ft | 496 kts | 132° |
| 2026-05-07 22:31 | 57.61780 | -137.37073 | 41238 ft | 495 kts | 132° |
| 2026-05-07 22:32 | 57.57668 | -137.26849 | 41242 ft | 496 kts | 132° |
| 2026-05-07 22:32 | 57.53520 | -137.16576 | 41240 ft | 496 kts | 132° |
| 2026-05-07 22:33 | 57.49361 | -137.06317 | 41228 ft | 496 kts | 133° |
| 2026-05-07 22:33 | 57.45196 | -136.96087 | 41239 ft | 496 kts | 133° |
| 2026-05-07 22:34 | 57.41017 | -136.85866 | 41238 ft | 497 kts | 133° |
| 2026-05-07 22:34 | 57.36827 | -136.75664 | 41238 ft | 497 kts | 133° |
| 2026-05-07 22:35 | 57.32628 | -136.65480 | 41213 ft | 497 kts | 133° |
| 2026-05-07 22:35 | 57.28438 | -136.55363 | 41235 ft | 497 kts | 133° |
| 2026-05-07 22:36 | 57.24231 | -136.45247 | 41236 ft | 496 kts | 133° |
| 2026-05-07 22:36 | 57.20014 | -136.35150 | 41237 ft | 496 kts | 133° |
| 2026-05-07 22:37 | 57.15814 | -136.25137 | 41229 ft | 496 kts | 133° |
| 2026-05-07 22:37 | 57.11586 | -136.15097 | 41225 ft | 496 kts | 133° |
| 2026-05-07 22:38 | 57.07348 | -136.05076 | 41236 ft | 495 kts | 133° |
| 2026-05-07 22:38 | 57.03105 | -135.95086 | 41230 ft | 495 kts | 133° |
| 2026-05-07 22:39 | 56.98860 | -135.85131 | 41234 ft | 495 kts | 133° |
| 2026-05-07 22:39 | 56.94603 | -135.75191 | 41232 ft | 495 kts | 133° |
| 2026-05-07 22:40 | 56.90386 | -135.65381 | 41237 ft | 493 kts | 134° |
| 2026-05-07 22:40 | 56.86133 | -135.55532 | 41233 ft | 493 kts | 134° |
| 2026-05-07 22:41 | 56.81922 | -135.45622 | 41234 ft | 494 kts | 133° |
| 2026-05-07 22:41 | 56.77765 | -135.35627 | 41214 ft | 496 kts | 132° |
| 2026-05-07 22:42 | 56.73544 | -135.25544 | 41231 ft | 505 kts | 132° |
| 2026-05-07 22:42 | 56.69963 | -135.17055 | 41231 ft | 512 kts | 133° |
| 2026-05-07 22:43 | 56.65583 | -135.06729 | 41236 ft | 519 kts | 133° |
| 2026-05-07 22:43 | 56.61140 | -134.96295 | 41232 ft | 522 kts | 133° |
| 2026-05-07 22:44 | 56.56686 | -134.85877 | 41234 ft | 522 kts | 133° |
| 2026-05-07 22:44 | 56.52229 | -134.75497 | 41237 ft | 521 kts | 133° |
| 2026-05-07 22:45 | 56.47765 | -134.65154 | 41238 ft | 521 kts | 133° |
| 2026-05-07 22:45 | 56.43319 | -134.54894 | 41241 ft | 521 kts | 133° |
| 2026-05-07 22:46 | 56.38836 | -134.44596 | 41243 ft | 521 kts | 133° |
| 2026-05-07 22:46 | 56.34346 | -134.34325 | 41233 ft | 521 kts | 133° |
| 2026-05-07 22:47 | 56.29854 | -134.24091 | 41224 ft | 521 kts | 133° |
| 2026-05-07 22:47 | 56.25349 | -134.13874 | 41225 ft | 521 kts | 133° |
| 2026-05-07 22:48 | 56.20866 | -134.03745 | 41221 ft | 520 kts | 133° |
| 2026-05-07 22:48 | 56.16321 | -133.93518 | 41210 ft | 521 kts | 133° |
| 2026-05-07 22:49 | 56.11821 | -133.83435 | 41207 ft | 521 kts | 133° |
| 2026-05-07 22:49 | 56.07286 | -133.73317 | 41163 ft | 520 kts | 133° |
| 2026-05-07 22:49 | 56.05021 | -133.68278 | 40973 ft | 519 kts | 133° |
| 2026-05-07 22:50 | 56.02754 | -133.63249 | 40803 ft | 520 kts | 134° |
| 2026-05-07 22:50 | 56.00480 | -133.58216 | 40633 ft | 521 kts | 134° |
| 2026-05-07 22:50 | 55.98201 | -133.53180 | 40464 ft | 521 kts | 134° |
| 2026-05-07 22:50 | 55.95925 | -133.48160 | 40295 ft | 521 kts | 134° |
| 2026-05-07 22:51 | 55.93645 | -133.43140 | 40132 ft | 521 kts | 134° |
| 2026-05-07 22:51 | 55.91363 | -133.38127 | 39965 ft | 521 kts | 134° |
| 2026-05-07 22:51 | 55.89072 | -133.33105 | 39800 ft | 521 kts | 134° |
| 2026-05-07 22:51 | 55.86786 | -133.28105 | 39607 ft | 521 kts | 134° |
| 2026-05-07 22:52 | 55.84497 | -133.23108 | 39450 ft | 521 kts | 135° |
| 2026-05-07 22:52 | 55.82208 | -133.18121 | 39299 ft | 521 kts | 135° |
| 2026-05-07 22:52 | 55.79916 | -133.13137 | 39141 ft | 520 kts | 135° |
| 2026-05-07 22:52 | 55.77621 | -133.08159 | 38975 ft | 520 kts | 135° |
| 2026-05-07 22:53 | 55.75323 | -133.03185 | 38804 ft | 520 kts | 135° |
| 2026-05-07 22:53 | 55.73049 | -132.98273 | 38631 ft | 520 kts | 135° |
| 2026-05-07 22:53 | 55.70744 | -132.93305 | 38422 ft | 521 kts | 135° |
| 2026-05-07 22:53 | 55.68440 | -132.88347 | 38212 ft | 521 kts | 135° |
| 2026-05-07 22:54 | 55.66130 | -132.83389 | 38034 ft | 521 kts | 135° |
| 2026-05-07 22:54 | 55.63811 | -132.78421 | 37840 ft | 522 kts | 135° |
| 2026-05-07 22:54 | 55.61522 | -132.73527 | 37659 ft | 522 kts | 135° |
| 2026-05-07 22:54 | 55.59198 | -132.68568 | 37465 ft | 523 kts | 135° |
| 2026-05-07 22:55 | 55.56871 | -132.63612 | 37287 ft | 524 kts | 135° |
| 2026-05-07 22:55 | 55.54542 | -132.58661 | 37102 ft | 524 kts | 135° |
| 2026-05-07 22:55 | 55.52209 | -132.53710 | 36920 ft | 524 kts | 135° |
| 2026-05-07 22:55 | 55.49867 | -132.48751 | 36726 ft | 525 kts | 135° |
| 2026-05-07 22:56 | 55.47526 | -132.43806 | 36558 ft | 526 kts | 135° |
| 2026-05-07 22:56 | 55.45179 | -132.38860 | 36356 ft | 527 kts | 135° |
| 2026-05-07 22:56 | 55.42820 | -132.33898 | 36192 ft | 528 kts | 135° |
| 2026-05-07 22:56 | 55.40462 | -132.28947 | 36023 ft | 528 kts | 135° |
| 2026-05-07 22:57 | 55.38127 | -132.24053 | 35848 ft | 529 kts | 135° |
| 2026-05-07 22:57 | 55.35756 | -132.19095 | 35674 ft | 530 kts | 135° |
| 2026-05-07 22:57 | 55.33382 | -132.14140 | 35528 ft | 530 kts | 136° |
| 2026-05-07 22:57 | 55.31005 | -132.09188 | 35331 ft | 530 kts | 136° |
| 2026-05-07 22:58 | 55.28620 | -132.04231 | 35167 ft | 531 kts | 136° |
| 2026-05-07 22:58 | 55.26237 | -131.99290 | 35004 ft | 531 kts | 136° |
| 2026-05-07 22:58 | 55.23846 | -131.94341 | 34836 ft | 532 kts | 136° |
| 2026-05-07 22:58 | 55.21455 | -131.89403 | 34672 ft | 532 kts | 136° |
| 2026-05-07 22:59 | 55.19049 | -131.84445 | 34507 ft | 533 kts | 136° |
| 2026-05-07 22:59 | 55.16648 | -131.79504 | 34344 ft | 533 kts | 136° |
| 2026-05-07 22:59 | 55.14270 | -131.74623 | 34179 ft | 534 kts | 136° |
| 2026-05-07 22:59 | 55.11828 | -131.69621 | 33969 ft | 535 kts | 136° |
| 2026-05-07 23:00 | 55.09442 | -131.64743 | 33778 ft | 535 kts | 136° |
| 2026-05-07 23:00 | 55.07011 | -131.59806 | 33600 ft | 534 kts | 136° |
| 2026-05-07 23:00 | 55.04413 | -131.55202 | 33445 ft | 531 kts | 141° |
| 2026-05-07 23:00 | 55.01765 | -131.50737 | 33259 ft | 530 kts | 142° |
| 2026-05-07 23:01 | 54.99087 | -131.46322 | 33082 ft | 530 kts | 142° |
| 2026-05-07 23:01 | 54.96390 | -131.41929 | 32905 ft | 531 kts | 142° |
| 2026-05-07 23:01 | 54.93690 | -131.37552 | 32711 ft | 531 kts | 142° |
| 2026-05-07 23:01 | 54.90978 | -131.33163 | 32525 ft | 532 kts | 142° |
| 2026-05-07 23:02 | 54.88265 | -131.28777 | 32350 ft | 532 kts | 142° |
| 2026-05-07 23:02 | 54.85557 | -131.24397 | 32185 ft | 532 kts | 142° |
| 2026-05-07 23:02 | 54.82847 | -131.20016 | 32010 ft | 533 kts | 142° |
| 2026-05-07 23:02 | 54.80126 | -131.15623 | 31852 ft | 533 kts | 142° |
| 2026-05-07 23:03 | 54.77448 | -131.11306 | 31683 ft | 533 kts | 142° |
| 2026-05-07 23:03 | 54.74729 | -131.06931 | 31513 ft | 534 kts | 142° |
| 2026-05-07 23:03 | 54.72002 | -131.02553 | 31328 ft | 534 kts | 142° |
| 2026-05-07 23:03 | 54.69277 | -130.98186 | 31197 ft | 535 kts | 142° |
| 2026-05-07 23:04 | 54.66534 | -130.93801 | 31177 ft | 536 kts | 142° |
| 2026-05-07 23:04 | 54.61060 | -130.85070 | 31178 ft | 536 kts | 142° |
| 2026-05-07 23:05 | 54.55577 | -130.76358 | 31181 ft | 536 kts | 142° |
| 2026-05-07 23:05 | 54.50085 | -130.67667 | 31184 ft | 536 kts | 142° |
| 2026-05-07 23:06 | 54.44594 | -130.59010 | 31181 ft | 536 kts | 142° |
| 2026-05-07 23:06 | 54.39135 | -130.50437 | 31182 ft | 535 kts | 142° |
| 2026-05-07 23:07 | 54.33628 | -130.41821 | 31183 ft | 535 kts | 142° |
| 2026-05-07 23:07 | 54.28117 | -130.33232 | 31184 ft | 536 kts | 142° |
| 2026-05-07 23:08 | 54.22590 | -130.24651 | 31173 ft | 536 kts | 142° |
| 2026-05-07 23:08 | 54.17062 | -130.16099 | 31171 ft | 536 kts | 142° |
| 2026-05-07 23:09 | 54.11520 | -130.07560 | 31150 ft | 536 kts | 142° |
| 2026-05-07 23:09 | 54.05974 | -129.99043 | 31159 ft | 537 kts | 142° |
| 2026-05-07 23:10 | 54.00422 | -129.90551 | 31160 ft | 537 kts | 143° |
| 2026-05-07 23:10 | 53.94899 | -129.82135 | 31147 ft | 537 kts | 143° |
| 2026-05-07 23:11 | 53.89332 | -129.73682 | 31152 ft | 537 kts | 143° |
| 2026-05-07 23:11 | 53.83751 | -129.65239 | 31150 ft | 538 kts | 143° |
| 2026-05-07 23:12 | 53.78168 | -129.56822 | 31136 ft | 537 kts | 143° |
| 2026-05-07 23:12 | 53.72581 | -129.48436 | 31147 ft | 536 kts | 143° |
| 2026-05-07 23:13 | 53.66999 | -129.40091 | 31146 ft | 535 kts | 143° |
| 2026-05-07 23:13 | 53.61417 | -129.31771 | 31150 ft | 535 kts | 143° |
| 2026-05-07 23:14 | 53.55860 | -129.23519 | 31152 ft | 535 kts | 143° |
| 2026-05-07 23:14 | 53.50276 | -129.15258 | 31140 ft | 535 kts | 143° |
| 2026-05-07 23:15 | 53.44672 | -129.07001 | 31150 ft | 535 kts | 143° |
| 2026-05-07 23:15 | 53.39070 | -128.98773 | 31150 ft | 535 kts | 143° |
| 2026-05-07 23:16 | 53.33458 | -128.90561 | 31143 ft | 536 kts | 143° |
| 2026-05-07 23:16 | 53.27837 | -128.82365 | 31144 ft | 536 kts | 143° |
| 2026-05-07 23:17 | 53.22198 | -128.74166 | 31149 ft | 537 kts | 143° |
| 2026-05-07 23:17 | 53.16592 | -128.66046 | 31141 ft | 537 kts | 143° |
| 2026-05-07 23:18 | 53.10938 | -128.57896 | 31123 ft | 538 kts | 143° |
| 2026-05-07 23:18 | 53.05279 | -128.49770 | 31137 ft | 538 kts | 143° |
| 2026-05-07 23:19 | 52.99612 | -128.41657 | 31143 ft | 538 kts | 143° |
| 2026-05-07 23:19 | 52.93934 | -128.33555 | 31139 ft | 537 kts | 143° |
| 2026-05-07 23:20 | 52.88260 | -128.25483 | 31138 ft | 538 kts | 143° |
| 2026-05-07 23:20 | 52.82572 | -128.17428 | 31142 ft | 538 kts | 143° |
| 2026-05-07 23:21 | 52.76879 | -128.09395 | 31142 ft | 538 kts | 143° |
| 2026-05-07 23:21 | 52.71216 | -128.01430 | 31143 ft | 538 kts | 143° |
| 2026-05-07 23:22 | 52.65506 | -127.93429 | 31142 ft | 538 kts | 143° |
| 2026-05-07 23:22 | 52.59796 | -127.85455 | 31144 ft | 538 kts | 143° |
| 2026-05-07 23:23 | 52.54070 | -127.77486 | 31146 ft | 538 kts | 143° |
| 2026-05-07 23:23 | 52.48350 | -127.69553 | 31141 ft | 538 kts | 144° |
| 2026-05-07 23:24 | 52.42619 | -127.61634 | 31138 ft | 538 kts | 144° |
| 2026-05-07 23:24 | 52.36886 | -127.53735 | 31144 ft | 538 kts | 144° |
| 2026-05-07 23:25 | 52.31191 | -127.45920 | 31131 ft | 538 kts | 144° |
| 2026-05-07 23:25 | 52.28329 | -127.42004 | 30996 ft | 537 kts | 144° |
| 2026-05-07 23:25 | 52.25465 | -127.38092 | 30759 ft | 538 kts | 144° |
| 2026-05-07 23:25 | 52.22587 | -127.34168 | 30527 ft | 539 kts | 144° |
| 2026-05-07 23:26 | 52.19711 | -127.30255 | 30303 ft | 539 kts | 144° |
| 2026-05-07 23:26 | 52.16837 | -127.26352 | 30051 ft | 538 kts | 144° |
| 2026-05-07 23:26 | 52.13962 | -127.22451 | 29777 ft | 536 kts | 144° |
| 2026-05-07 23:26 | 52.11108 | -127.18584 | 29494 ft | 533 kts | 144° |
| 2026-05-07 23:27 | 52.05418 | -127.10892 | 28925 ft | 529 kts | 144° |
| 2026-05-07 23:27 | 52.02589 | -127.07083 | 28657 ft | 527 kts | 144° |
| 2026-05-07 23:27 | 51.99771 | -127.03298 | 28397 ft | 524 kts | 144° |
| 2026-05-07 23:28 | 51.96974 | -126.99549 | 28110 ft | 521 kts | 144° |
| 2026-05-07 23:28 | 51.94186 | -126.95814 | 27880 ft | 518 kts | 144° |
| 2026-05-07 23:28 | 51.91413 | -126.92105 | 27616 ft | 516 kts | 144° |
| 2026-05-07 23:28 | 51.88646 | -126.88409 | 27344 ft | 514 kts | 144° |
| 2026-05-07 23:29 | 51.86826 | -126.85981 | 27171 ft | 512 kts | 144° |
| 2026-05-07 23:29 | 51.84081 | -126.82324 | 26936 ft | 509 kts | 144° |
| 2026-05-07 23:29 | 51.81351 | -126.78691 | 26682 ft | 507 kts | 144° |
| 2026-05-07 23:29 | 51.78632 | -126.75080 | 26441 ft | 504 kts | 144° |
| 2026-05-07 23:30 | 51.75925 | -126.71492 | 26319 ft | 502 kts | 144° |
| 2026-05-07 23:30 | 51.73229 | -126.67924 | 26196 ft | 501 kts | 144° |
| 2026-05-07 23:30 | 51.70537 | -126.64370 | 26063 ft | 500 kts | 144° |
| 2026-05-07 23:30 | 51.67849 | -126.60821 | 25931 ft | 499 kts | 144° |
| 2026-05-07 23:31 | 51.65160 | -126.57280 | 25825 ft | 498 kts | 144° |
| 2026-05-07 23:31 | 51.62479 | -126.53757 | 25708 ft | 497 kts | 144° |
| 2026-05-07 23:31 | 51.59839 | -126.50291 | 25579 ft | 496 kts | 144° |
| 2026-05-07 23:31 | 51.57163 | -126.46783 | 25470 ft | 495 kts | 144° |
| 2026-05-07 23:32 | 51.54497 | -126.43290 | 25370 ft | 493 kts | 144° |
| 2026-05-07 23:32 | 51.51845 | -126.39822 | 25248 ft | 492 kts | 144° |
| 2026-05-07 23:32 | 51.49186 | -126.36354 | 25123 ft | 491 kts | 144° |
| 2026-05-07 23:32 | 51.46538 | -126.32903 | 25004 ft | 491 kts | 144° |
| 2026-05-07 23:33 | 51.43881 | -126.29447 | 24888 ft | 490 kts | 144° |
| 2026-05-07 23:33 | 51.41241 | -126.26016 | 24773 ft | 488 kts | 144° |
| 2026-05-07 23:33 | 51.38604 | -126.22595 | 24668 ft | 487 kts | 144° |
| 2026-05-07 23:33 | 51.35972 | -126.19184 | 24543 ft | 486 kts | 144° |
| 2026-05-07 23:34 | 51.33347 | -126.15786 | 24440 ft | 485 kts | 144° |
| 2026-05-07 23:34 | 51.30727 | -126.12400 | 24306 ft | 484 kts | 144° |
| 2026-05-07 23:34 | 51.28144 | -126.09070 | 24195 ft | 483 kts | 144° |
| 2026-05-07 23:34 | 51.25529 | -126.05704 | 24075 ft | 482 kts | 144° |
| 2026-05-07 23:35 | 51.22921 | -126.02351 | 23962 ft | 481 kts | 144° |
| 2026-05-07 23:35 | 51.20317 | -125.99007 | 23836 ft | 480 kts | 144° |
| 2026-05-07 23:35 | 51.17726 | -125.95680 | 23750 ft | 478 kts | 144° |
| 2026-05-07 23:35 | 51.15136 | -125.92364 | 23623 ft | 477 kts | 144° |
| 2026-05-07 23:36 | 51.12549 | -125.89058 | 23504 ft | 476 kts | 144° |
| 2026-05-07 23:36 | 51.09964 | -125.85761 | 23355 ft | 476 kts | 144° |
| 2026-05-07 23:36 | 51.07378 | -125.82470 | 23325 ft | 476 kts | 144° |
| 2026-05-07 23:36 | 51.04795 | -125.79187 | 23295 ft | 476 kts | 144° |
| 2026-05-07 23:37 | 51.02213 | -125.75908 | 23251 ft | 475 kts | 144° |
| 2026-05-07 23:37 | 50.99631 | -125.72632 | 23233 ft | 475 kts | 144° |
| 2026-05-07 23:37 | 50.97050 | -125.69363 | 23207 ft | 475 kts | 144° |
| 2026-05-07 23:37 | 50.94467 | -125.66095 | 23186 ft | 474 kts | 144° |
| 2026-05-07 23:38 | 50.91881 | -125.62830 | 23136 ft | 474 kts | 144° |
| 2026-05-07 23:38 | 50.89297 | -125.59574 | 23106 ft | 475 kts | 144° |
| 2026-05-07 23:38 | 50.86711 | -125.56321 | 23079 ft | 475 kts | 144° |
| 2026-05-07 23:38 | 50.84123 | -125.53066 | 23048 ft | 475 kts | 144° |
| 2026-05-07 23:39 | 50.81542 | -125.49823 | 23029 ft | 474 kts | 144° |
| 2026-05-07 23:39 | 50.78957 | -125.46580 | 23016 ft | 473 kts | 144° |
| 2026-05-07 23:39 | 50.76384 | -125.43357 | 22990 ft | 472 kts | 144° |
| 2026-05-07 23:39 | 50.73842 | -125.40178 | 22965 ft | 471 kts | 144° |
| 2026-05-07 23:40 | 50.71240 | -125.36930 | 22924 ft | 471 kts | 144° |
| 2026-05-07 23:40 | 50.68700 | -125.33764 | 22899 ft | 471 kts | 144° |
| 2026-05-07 23:40 | 50.66093 | -125.30516 | 22870 ft | 471 kts | 144° |
| 2026-05-07 23:40 | 50.63553 | -125.27357 | 22843 ft | 471 kts | 144° |
| 2026-05-07 23:41 | 50.60982 | -125.24167 | 22818 ft | 471 kts | 144° |
| 2026-05-07 23:41 | 50.58408 | -125.20978 | 22788 ft | 471 kts | 144° |
| 2026-05-07 23:41 | 50.55832 | -125.17791 | 22766 ft | 471 kts | 144° |
| 2026-05-07 23:41 | 50.53259 | -125.14611 | 22739 ft | 470 kts | 144° |
| 2026-05-07 23:42 | 50.50687 | -125.11437 | 22715 ft | 470 kts | 144° |
| 2026-05-07 23:42 | 50.48113 | -125.08266 | 22681 ft | 470 kts | 144° |
| 2026-05-07 23:42 | 50.45540 | -125.05098 | 22660 ft | 470 kts | 144° |
| 2026-05-07 23:42 | 50.42970 | -125.01940 | 22634 ft | 469 kts | 144° |
| 2026-05-07 23:43 | 50.40396 | -124.98781 | 22622 ft | 469 kts | 144° |
| 2026-05-07 23:43 | 50.37825 | -124.95629 | 22584 ft | 469 kts | 144° |
| 2026-05-07 23:43 | 50.35251 | -124.92478 | 22561 ft | 469 kts | 144° |
| 2026-05-07 23:43 | 50.32682 | -124.89339 | 22525 ft | 468 kts | 144° |
| 2026-05-07 23:44 | 50.30106 | -124.86197 | 22498 ft | 469 kts | 144° |
| 2026-05-07 23:44 | 50.27539 | -124.83069 | 22473 ft | 468 kts | 144° |
| 2026-05-07 23:44 | 50.24967 | -124.79938 | 22446 ft | 468 kts | 144° |
| 2026-05-07 23:44 | 50.22401 | -124.76819 | 22423 ft | 468 kts | 144° |
| 2026-05-07 23:45 | 50.19829 | -124.73697 | 22383 ft | 468 kts | 144° |
| 2026-05-07 23:45 | 50.17302 | -124.70492 | 22378 ft | 468 kts | 142° |
| 2026-05-07 23:45 | 50.14805 | -124.67229 | 22349 ft | 468 kts | 142° |
| 2026-05-07 23:45 | 50.12345 | -124.64020 | 22235 ft | 467 kts | 142° |
| 2026-05-07 23:46 | 50.09849 | -124.60781 | 21992 ft | 466 kts | 142° |
| 2026-05-07 23:46 | 50.07354 | -124.57557 | 21709 ft | 464 kts | 142° |
| 2026-05-07 23:46 | 50.04889 | -124.54381 | 21228 ft | 453 kts | 142° |
| 2026-05-07 23:46 | 50.02486 | -124.51290 | 20738 ft | 443 kts | 142° |
| 2026-05-07 23:47 | 50.00135 | -124.48273 | 20250 ft | 433 kts | 142° |
| 2026-05-07 23:47 | 49.97837 | -124.45329 | 19769 ft | 424 kts | 142° |
| 2026-05-07 23:47 | 49.95582 | -124.42443 | 19294 ft | 415 kts | 142° |
| 2026-05-07 23:47 | 49.93371 | -124.39620 | 18831 ft | 407 kts | 142° |
| 2026-05-07 23:48 | 49.91204 | -124.36856 | 18364 ft | 400 kts | 142° |
| 2026-05-07 23:48 | 49.89072 | -124.34139 | 17841 ft | 393 kts | 142° |
| 2026-05-07 23:48 | 49.86977 | -124.31473 | 17320 ft | 386 kts | 142° |
| 2026-05-07 23:48 | 49.84944 | -124.28889 | 16817 ft | 380 kts | 142° |
| 2026-05-07 23:49 | 49.82917 | -124.26315 | 16313 ft | 374 kts | 142° |
| 2026-05-07 23:49 | 49.80922 | -124.23785 | 15822 ft | 368 kts | 142° |
| 2026-05-07 23:49 | 49.78950 | -124.21288 | 15337 ft | 363 kts | 142° |
| 2026-05-07 23:49 | 49.77002 | -124.18822 | 14851 ft | 359 kts | 142° |
| 2026-05-07 23:50 | 49.75083 | -124.16397 | 14372 ft | 354 kts | 142° |
| 2026-05-07 23:50 | 49.73190 | -124.14006 | 13895 ft | 349 kts | 142° |
| 2026-05-07 23:50 | 49.71318 | -124.11645 | 13380 ft | 345 kts | 142° |
| 2026-05-07 23:50 | 49.69472 | -124.09319 | 12860 ft | 340 kts | 142° |
| 2026-05-07 23:51 | 49.67650 | -124.07024 | 12356 ft | 336 kts | 141° |
| 2026-05-07 23:51 | 49.65850 | -124.04760 | 11854 ft | 331 kts | 142° |
| 2026-05-07 23:51 | 49.64073 | -124.02527 | 11354 ft | 327 kts | 142° |
| 2026-05-07 23:51 | 49.62320 | -124.00327 | 10871 ft | 323 kts | 142° |
| 2026-05-07 23:52 | 49.60594 | -123.98162 | 10483 ft | 316 kts | 141° |
| 2026-05-07 23:52 | 49.58918 | -123.96061 | 10227 ft | 305 kts | 141° |
| 2026-05-07 23:52 | 49.57300 | -123.94035 | 9996 ft | 295 kts | 141° |
| 2026-05-07 23:52 | 49.55732 | -123.92073 | 9733 ft | 287 kts | 141° |
| 2026-05-07 23:53 | 49.54193 | -123.90151 | 9472 ft | 284 kts | 141° |
| 2026-05-07 23:53 | 49.52662 | -123.88241 | 9211 ft | 283 kts | 141° |
| 2026-05-07 23:53 | 49.51159 | -123.86366 | 8958 ft | 281 kts | 141° |
| 2026-05-07 23:53 | 49.49642 | -123.84474 | 8704 ft | 280 kts | 141° |
| 2026-05-07 23:54 | 49.48131 | -123.82593 | 8450 ft | 279 kts | 141° |
| 2026-05-07 23:54 | 49.46629 | -123.80723 | 8240 ft | 278 kts | 141° |
| 2026-05-07 23:54 | 49.45129 | -123.78857 | 8064 ft | 277 kts | 141° |
| 2026-05-07 23:54 | 49.43634 | -123.76999 | 7885 ft | 276 kts | 141° |
| 2026-05-07 23:55 | 49.42146 | -123.75152 | 7729 ft | 275 kts | 141° |
| 2026-05-07 23:55 | 49.40662 | -123.73311 | 7554 ft | 274 kts | 141° |
| 2026-05-07 23:55 | 49.39181 | -123.71475 | 7384 ft | 273 kts | 141° |
| 2026-05-07 23:55 | 49.37719 | -123.69664 | 7211 ft | 272 kts | 141° |
| 2026-05-07 23:56 | 49.36243 | -123.67837 | 7042 ft | 271 kts | 141° |
| 2026-05-07 23:56 | 49.34776 | -123.66023 | 6877 ft | 270 kts | 141° |
| 2026-05-07 23:56 | 49.33314 | -123.64217 | 6684 ft | 270 kts | 141° |
| 2026-05-07 23:56 | 49.31857 | -123.62417 | 6443 ft | 268 kts | 141° |
| 2026-05-07 23:57 | 49.30401 | -123.60621 | 6185 ft | 268 kts | 141° |
| 2026-05-07 23:57 | 49.28951 | -123.58833 | 5935 ft | 267 kts | 141° |
| 2026-05-07 23:57 | 49.27501 | -123.57047 | 5677 ft | 267 kts | 141° |
| 2026-05-07 23:57 | 49.26054 | -123.55265 | 5420 ft | 265 kts | 141° |
| 2026-05-07 23:58 | 49.24644 | -123.53516 | 5168 ft | 257 kts | 140° |
| 2026-05-07 23:58 | 49.23420 | -123.51627 | 4963 ft | 241 kts | 129° |
| 2026-05-07 23:58 | 49.22564 | -123.49589 | 4709 ft | 216 kts | 116° |
| 2026-05-07 23:58 | 49.22084 | -123.47557 | 4436 ft | 197 kts | 101° |
| 2026-05-07 23:59 | 49.21887 | -123.45545 | 4103 ft | 187 kts | 98° |
| 2026-05-07 23:59 | 49.21681 | -123.43617 | 3742 ft | 180 kts | 99° |
| 2026-05-07 23:59 | 49.21463 | -123.41762 | 3384 ft | 174 kts | 101° |
| 2026-05-07 23:59 | 49.21243 | -123.39961 | 3010 ft | 170 kts | 101° |
| 2026-05-08 00:00 | 49.21031 | -123.38212 | 2644 ft | 166 kts | 101° |
| 2026-05-08 00:00 | 49.20828 | -123.36491 | 2309 ft | 163 kts | 101° |
| 2026-05-08 00:00 | 49.20634 | -123.34812 | 2037 ft | 155 kts | 101° |
| 2026-05-08 00:00 | 49.20455 | -123.33255 | 1933 ft | 147 kts | 101° |
| 2026-05-08 00:01 | 49.20280 | -123.31727 | 1693 ft | 146 kts | 102° |
| 2026-05-08 00:01 | 49.20103 | -123.30196 | 1392 ft | 146 kts | 102° |
| 2026-05-08 00:01 | 49.19929 | -123.28679 | 1133 ft | 144 kts | 102° |
| 2026-05-08 00:01 | 49.19756 | -123.27185 | 944 ft | 142 kts | 102° |
| 2026-05-08 00:02 | 49.19584 | -123.25696 | 739 ft | 142 kts | 102° |
| 2026-05-08 00:02 | 49.19413 | -123.24205 | 537 ft | 143 kts | 102° |
| 2026-05-08 00:02 | 49.19238 | -123.22697 | 356 ft | 146 kts | 103° |
| 2026-05-08 00:02 | 49.19062 | -123.21163 | 151 ft | 146 kts | 103° |
| 2026-05-08 00:03 | 49.18892 | -123.19694 | 32 ft | 137 kts | 104° |
| 2026-05-08 00:03 | 49.18730 | -123.18379 | 26 ft | 108 kts | 100° |
| 2026-05-08 00:03 | 49.18626 | -123.17435 | 27 ft | 66 kts | 100° |
| 2026-05-08 00:03 | 49.18570 | -123.16956 | 25 ft | 31 kts | 100° |
| 2026-05-08 00:04 | 49.18536 | -123.16662 | 22 ft | 29 kts | 99° |
| 2026-05-08 00:04 | 49.18503 | -123.16360 | 30 ft | 28 kts | 97° |
| 2026-05-08 00:04 | 49.18542 | -123.16218 | 29 ft | 12 kts | 23° |
| 2026-05-08 00:04 | 49.18633 | -123.16209 | 28 ft | 15 kts | 336° |
| 2026-05-08 00:05 | 49.18708 | -123.16333 | 28 ft | 17 kts | 295° |
| 2026-05-08 00:05 | 49.18735 | -123.16508 | 29 ft | 18 kts | 281° |
| 2026-05-08 00:05 | 49.18757 | -123.16701 | 26 ft | 19 kts | 279° |
| 2026-05-08 00:05 | 49.18780 | -123.16905 | 29 ft | 18 kts | 279° |
| 2026-05-08 00:06 | 49.18799 | -123.17083 | 27 ft | 16 kts | 279° |
| 2026-05-08 00:06 | 49.18818 | -123.17252 | 27 ft | 13 kts | 280° |
| 2026-05-08 00:06 | 49.18833 | -123.17366 | 25 ft | 8 kts | 289° |
| 2026-05-08 00:06 | 49.18846 | -123.17387 | 30 ft | 1 kts | 329° |
| 2026-05-08 00:07 | 49.18849 | -123.17389 | 26 ft | 2 kts | 334° |
| 2026-05-08 00:07 | 49.18904 | -123.17411 | 29 ft | 8 kts | 342° |
| 2026-05-08 00:07 | 49.18928 | -123.17429 | 27 ft | 0 kts | 318° |
| 2026-05-08 00:07 | 49.18929 | -123.17429 | 27 ft | 0 kts | 317° |